Time;durP1;ratioP1;P1;durP2;ratioP2;P2;SDS_P1;SDS_P2;PMS_P1;PMS_P2;Temp;Humidity;BMP_temperature;BMP_pressure;BME280_temperature;BME280_humidity;BME280_pressure;Samples;Min_cycle;Max_cycle;Signal;HPM_P1;HPM_P2
2022/02/28 00:00:57;;;;;;;9.00;2.75;;;;;;;8.04;46.16;102536.59;1774691;80;20967;-53
2022/02/28 00:03:25;;;;;;;4.65;3.40;;;;;;;8.04;46.41;102539.18;1759116;80;21011;-53
2022/02/28 00:05:52;;;;;;;5.05;2.98;;;;;;;8.05;46.40;102529.27;1758835;80;21038;-53
2022/02/28 00:08:20;;;;;;;7.80;3.12;;;;;;;8.06;46.62;102528.41;1755974;80;21030;-52
2022/02/28 00:10:46;;;;;;;6.17;2.87;;;;;;;8.06;46.75;102524.52;1752311;80;21027;-53
2022/02/28 00:13:13;;;;;;;6.75;3.10;;;;;;;8.06;46.78;102525.81;1751868;80;21042;-52
2022/02/28 00:15:39;;;;;;;7.08;3.27;;;;;;;8.07;47.07;102521.52;1766576;80;20990;-52
2022/02/28 00:18:06;;;;;;;5.15;3.00;;;;;;;8.04;47.12;102521.03;1766751;80;21502;-52
2022/02/28 00:20:33;;;;;;;5.50;2.55;;;;;;;8.02;46.86;102512.77;1754305;80;21537;-52
2022/02/28 00:23:00;;;;;;;7.20;2.92;;;;;;;8.03;46.75;102511.94;1753996;81;21471;-52
2022/02/28 00:25:28;;;;;;;7.97;3.12;;;;;;;8.01;46.79;102514.52;1769585;80;21549;-52
2022/02/28 00:27:55;;;;;;;3.83;2.50;;;;;;;8.00;46.88;102505.39;1762367;80;20983;-53
2022/02/28 00:30:21;;;;;;;5.55;2.55;;;;;;;7.98;46.81;102504.50;1750187;81;21046;-53
2022/02/28 00:32:48;;;;;;;7.20;3.10;;;;;;;7.97;46.56;102506.66;1763600;81;20956;-52
2022/02/28 00:35:15;;;;;;;6.28;2.60;;;;;;;7.95;46.76;102506.64;1769694;81;20991;-52
2022/02/28 00:37:41;;;;;;;5.00;2.83;;;;;;;7.95;46.84;102489.80;1769803;80;20991;-52
2022/02/28 00:40:08;;;;;;;6.15;2.40;;;;;;;7.94;46.95;102488.03;1751120;80;21505;-52
2022/02/28 00:42:35;;;;;;;5.62;2.83;;;;;;;7.94;46.61;102477.66;1747978;80;20973;-52
2022/02/28 00:45:03;;;;;;;5.00;2.75;;;;;;;7.93;46.22;102475.05;1765155;80;21021;-52
2022/02/28 00:47:30;;;;;;;6.53;2.50;;;;;;;7.92;46.27;102481.95;1761208;80;21076;-52
2022/02/28 00:49:56;;;;;;;5.83;2.92;;;;;;;7.92;45.90;102472.88;1761141;80;21068;-52
2022/02/28 00:52:22;;;;;;;5.17;2.92;;;;;;;7.90;45.82;102474.58;1751123;80;21517;-52
2022/02/28 00:54:49;;;;;;;5.62;3.15;;;;;;;7.89;45.57;102466.33;1745419;80;21074;-52
2022/02/28 00:57:15;;;;;;;8.30;3.00;;;;;;;7.88;45.72;102471.08;1763829;80;21057;-52
2022/02/28 00:59:42;;;;;;;7.17;2.85;;;;;;;7.87;46.10;102465.44;1751473;80;21066;-52
2022/02/28 01:02:09;;;;;;;6.92;2.60;;;;;;;7.85;46.09;102471.02;1751821;81;20966;-52
2022/02/28 01:04:36;;;;;;;4.20;2.33;;;;;;;7.82;45.92;102468.39;1757106;80;21038;-52
2022/02/28 01:07:05;;;;;;;4.15;2.65;;;;;;;7.80;46.14;102464.91;1750852;80;21054;-52
2022/02/28 01:09:33;;;;;;;5.25;2.30;;;;;;;7.78;46.06;102461.41;1763301;80;21054;-52
2022/02/28 01:12:02;;;;;;;3.47;2.10;;;;;;;7.77;46.05;102450.59;1746970;81;21004;-52
2022/02/28 01:14:29;;;;;;;4.33;2.62;;;;;;;7.76;45.90;102456.63;1750588;80;21022;-52
2022/02/28 01:16:56;;;;;;;4.35;2.37;;;;;;;7.76;45.75;102460.52;1761037;80;21039;-52
2022/02/28 01:19:22;;;;;;;5.55;3.20;;;;;;;7.75;45.68;102462.64;1743009;81;20999;-52
2022/02/28 01:21:49;;;;;;;4.80;2.70;;;;;;;7.75;45.48;102452.73;1746503;81;21176;-52
2022/02/28 01:24:16;;;;;;;6.78;3.10;;;;;;;7.74;45.45;102459.63;1758942;80;21456;-52
2022/02/28 01:26:45;;;;;;;5.10;2.70;;;;;;;7.72;45.96;102456.13;1759621;80;21081;-52
2022/02/28 01:29:12;;;;;;;8.35;3.30;;;;;;;7.71;46.34;102449.19;1761602;80;21050;-52
2022/02/28 01:31:39;;;;;;;7.35;3.12;;;;;;;7.70;46.54;102451.34;1760343;80;21040;-52
2022/02/28 01:34:05;;;;;;;5.53;3.02;;;;;;;7.68;46.78;102445.69;1748018;80;21041;-52
2022/02/28 01:36:32;;;;;;;5.58;2.70;;;;;;;7.66;46.60;102431.84;1771996;80;21026;-52
2022/02/28 01:39:00;;;;;;;4.70;2.85;;;;;;;7.63;46.51;102436.53;1760602;80;21061;-52
2022/02/28 01:41:27;;;;;;;3.27;2.40;;;;;;;7.61;46.50;102435.64;1759030;80;21059;-52
2022/02/28 01:43:53;;;;;;;4.47;2.27;;;;;;;7.60;46.35;102434.33;1758343;80;21026;-53
2022/02/28 01:46:20;;;;;;;7.22;2.87;;;;;;;7.58;46.21;102428.25;1758650;80;20990;-54
2022/02/28 01:48:46;;;;;;;3.42;2.27;;;;;;;7.54;46.00;102427.33;1757862;80;20978;-52
2022/02/28 01:51:13;;;;;;;7.42;2.77;;;;;;;7.54;46.11;102426.03;1749782;80;21029;-52
2022/02/28 01:53:39;;;;;;;10.80;3.02;;;;;;;7.54;45.87;102423.45;1753960;80;20987;-52
2022/02/28 01:56:06;;;;;;;4.97;2.98;;;;;;;7.54;45.80;102416.97;1747360;80;21487;-52
2022/02/28 01:58:36;;;;;;;6.80;2.72;;;;;;;7.54;45.91;102414.38;1752995;80;21054;-52
2022/02/28 02:01:06;;;;;;;4.78;2.17;;;;;;;7.55;46.08;102407.04;1755807;80;21021;-52
2022/02/28 02:03:34;;;;;;;8.20;2.45;;;;;;;7.54;46.07;102401.42;1747354;81;21042;-52
2022/02/28 02:06:01;;;;;;;4.37;2.20;;;;;;;7.54;45.78;102404.02;1760748;80;21007;-53
2022/02/28 02:08:28;;;;;;;4.30;2.27;;;;;;;7.50;45.64;102404.78;1753080;80;21034;-52
2022/02/28 02:10:55;;;;;;;5.28;2.00;;;;;;;7.51;45.87;102414.31;1760240;80;21021;-52
2022/02/28 02:13:22;;;;;;;4.45;2.12;;;;;;;7.51;46.21;102410.42;1753197;80;21030;-52
2022/02/28 02:15:48;;;;;;;6.20;2.20;;;;;;;7.51;46.09;102414.31;1754940;80;21009;-52
2022/02/28 02:18:15;;;;;;;5.10;2.15;;;;;;;7.50;45.67;102406.08;1744283;80;20970;-52
2022/02/28 02:20:41;;;;;;;5.20;3.10;;;;;;;7.50;45.79;102404.78;1753673;80;21116;-52
2022/02/28 02:23:11;;;;;;;5.42;2.47;;;;;;;7.50;45.94;102404.78;1771500;80;21038;-52
2022/02/28 02:25:38;;;;;;;5.22;2.30;;;;;;;7.49;45.83;102395.70;1752338;80;21023;-52
2022/02/28 02:28:07;;;;;;;5.83;2.55;;;;;;;7.48;46.10;102402.59;1756576;80;21071;-52
2022/02/28 02:30:34;;;;;;;5.45;2.33;;;;;;;7.50;46.26;102405.23;1748551;81;21003;-52
2022/02/28 02:33:01;;;;;;;5.40;1.98;;;;;;;7.50;46.31;102402.19;1752449;80;21014;-52
2022/02/28 02:35:28;;;;;;;5.58;2.33;;;;;;;7.49;46.09;102403.05;1747062;81;21148;-52
2022/02/28 02:37:55;;;;;;;5.25;2.62;;;;;;;7.50;45.96;102397.02;1747644;80;21020;-52
2022/02/28 02:40:21;;;;;;;4.90;2.33;;;;;;;7.49;45.89;102400.47;1744758;80;21021;-52
2022/02/28 02:42:48;;;;;;;3.27;2.00;;;;;;;7.50;45.72;102402.64;1743851;80;20998;-52
2022/02/28 02:45:15;;;;;;;9.20;2.70;;;;;;;7.52;45.99;102397.94;1763218;80;20994;-52
2022/02/28 02:47:41;;;;;;;4.40;2.45;;;;;;;7.53;46.00;102402.26;1747937;80;21474;-51
2022/02/28 02:50:10;;;;;;;3.75;2.72;;;;;;;7.53;46.00;102403.55;1689846;84;21101;-52
2022/02/28 02:52:37;;;;;;;8.13;3.42;;;;;;;7.53;46.28;102395.78;1689105;84;21037;-52
2022/02/28 02:55:06;;;;;;;11.48;2.92;;;;;;;7.52;46.45;102384.99;1688891;84;21064;-52
2022/02/28 02:57:33;;;;;;;5.42;3.12;;;;;;;7.54;46.51;102385.01;1689011;85;21017;-52
2022/02/28 03:00:04;;;;;;;6.70;3.40;;;;;;;7.54;46.77;102383.72;1684650;84;21085;-52
2022/02/28 03:02:32;;;;;;;7.03;3.02;;;;;;;7.54;46.78;102388.48;1659824;84;21049;-52
2022/02/28 03:04:59;;;;;;;8.00;3.55;;;;;;;7.53;46.89;102385.84;1692538;83;21065;-52
2022/02/28 03:07:28;;;;;;;6.92;3.37;;;;;;;7.52;46.96;102384.11;1692625;84;21112;-51
2022/02/28 03:09:54;;;;;;;6.35;3.47;;;;;;;7.51;47.23;102383.23;1686704;84;21093;-52
2022/02/28 03:12:21;;;;;;;4.85;3.37;;;;;;;7.50;47.41;102382.77;1670718;85;21085;-52
2022/02/28 03:14:49;;;;;;;5.60;3.10;;;;;;;7.49;47.43;102383.63;1676716;83;21017;-52
2022/02/28 03:17:16;;;;;;;6.45;3.65;;;;;;;7.48;47.64;102380.58;1686550;84;21090;-52
2022/02/28 03:19:42;;;;;;;7.95;3.33;;;;;;;7.47;47.72;102377.55;1688857;84;21076;-52
2022/02/28 03:22:09;;;;;;;10.60;3.92;;;;;;;7.46;47.86;102377.09;1693751;84;21049;-52
2022/02/28 03:24:37;;;;;;;7.60;4.17;;;;;;;7.43;48.24;102375.76;1691538;84;21085;-52
2022/02/28 03:27:04;;;;;;;6.20;4.00;;;;;;;7.42;48.53;102369.27;1677255;84;21733;-52
2022/02/28 03:29:31;;;;;;;10.50;3.83;;;;;;;7.42;48.62;102370.56;1681830;83;21537;-52
2022/02/28 03:31:57;;;;;;;8.55;3.65;;;;;;;7.41;48.63;102374.86;1684273;85;20990;-52
2022/02/28 03:34:24;;;;;;;7.12;3.83;;;;;;;7.43;48.71;102371.88;1670300;84;20994;-52
2022/02/28 03:36:51;;;;;;;8.55;3.87;;;;;;;7.47;48.79;102373.67;1682537;84;21018;-52
2022/02/28 03:39:18;;;;;;;7.25;3.67;;;;;;;7.48;48.57;102365.03;1673886;85;21027;-52
2022/02/28 03:41:45;;;;;;;6.85;3.75;;;;;;;7.49;48.54;102360.31;1671291;85;21017;-52
2022/02/28 03:44:11;;;;;;;9.95;4.45;;;;;;;7.48;48.30;102354.67;1687117;84;21124;-52
2022/02/28 03:46:41;;;;;;;7.97;4.10;;;;;;;7.48;48.18;102354.67;1685886;84;21578;-52
2022/02/28 03:49:15;;;;;;;6.92;3.67;;;;;;;7.48;48.36;102365.03;1682074;83;21023;-53
2022/02/28 03:51:43;;;;;;;8.08;4.33;;;;;;;7.49;48.52;102356.44;1681464;85;21108;-52
2022/02/28 03:54:12;;;;;;;6.47;3.80;;;;;;;7.48;48.49;102357.27;1749562;80;21074;-52
2022/02/28 03:56:44;;;;;;;6.95;4.40;;;;;;;7.46;48.74;102361.55;1761553;80;21522;-54
2022/02/28 03:59:12;;;;;;;8.13;4.42;;;;;;;7.45;48.80;102362.41;1757234;80;21018;-52
2022/02/28 04:01:39;;;;;;;7.55;3.72;;;;;;;7.45;48.66;102357.23;1761082;80;21057;-52
2022/02/28 04:04:08;;;;;;;7.65;3.98;;;;;;;7.42;48.86;102345.96;1757348;81;21038;-53
2022/02/28 04:06:35;;;;;;;7.30;4.35;;;;;;;7.40;48.92;102351.09;1759967;80;21010;-52
2022/02/28 04:09:04;;;;;;;9.98;4.65;;;;;;;7.39;48.98;102350.66;1762760;80;21129;-52
2022/02/28 04:11:33;;;;;;;7.92;4.10;;;;;;;7.39;48.92;102351.54;1762473;80;21474;-52
2022/02/28 04:14:01;;;;;;;6.80;4.20;;;;;;;7.37;49.18;102359.70;1748560;80;21077;-52
2022/02/28 04:16:28;;;;;;;6.87;4.12;;;;;;;7.38;49.29;102355.37;1762314;80;21026;-52
2022/02/28 04:18:57;;;;;;;12.37;4.08;;;;;;;7.36;49.35;102355.77;1699535;83;21015;-53
2022/02/28 04:21:25;;;;;;;6.97;4.25;;;;;;;7.36;49.27;102360.95;1682456;83;21066;-52
2022/02/28 04:23:52;;;;;;;11.08;4.08;;;;;;;7.34;49.12;102359.64;1680713;84;21676;-52
2022/02/28 04:26:19;;;;;;;10.43;5.12;;;;;;;7.33;49.24;102372.57;1684228;83;21566;-52
2022/02/28 04:28:46;;;;;;;6.75;3.87;;;;;;;7.34;49.50;102375.59;1694884;83;21523;-52
2022/02/28 04:31:13;;;;;;;9.48;4.35;;;;;;;7.34;49.46;102378.18;1681335;83;21550;-53
2022/02/28 04:33:40;;;;;;;6.53;4.08;;;;;;;7.35;49.51;102376.06;1674819;83;21523;-53
2022/02/28 04:36:07;;;;;;;11.20;4.08;;;;;;;7.34;49.58;102379.06;1697057;83;21027;-52
2022/02/28 04:38:34;;;;;;;8.43;4.42;;;;;;;7.38;49.76;102383.86;1675815;83;21163;-52
2022/02/28 04:41:01;;;;;;;7.20;4.25;;;;;;;7.41;49.88;102386.52;1691482;83;21571;-52
2022/02/28 04:43:28;;;;;;;10.05;4.60;;;;;;;7.43;50.06;102390.00;1680032;83;21580;-53
2022/02/28 04:45:55;;;;;;;7.97;4.67;;;;;;;7.44;49.97;102393.03;1692511;83;21051;-52
2022/02/28 04:48:22;;;;;;;9.75;5.33;;;;;;;7.45;49.79;102401.27;1695845;83;21547;-52
2022/02/28 04:51:07;;;;;;;12.18;4.90;;;;;;;7.46;49.62;102399.10;1688511;83;21111;-52
2022/02/28 04:53:35;;;;;;;8.13;5.15;;;;;;;7.48;49.23;102401.74;1698154;83;21023;-52
2022/02/28 04:56:04;;;;;;;9.20;4.87;;;;;;;7.46;49.38;102404.28;1705392;83;21127;-52
2022/02/28 04:58:31;;;;;;;11.33;5.08;;;;;;;7.46;49.26;102405.58;1705617;83;21048;-53
2022/02/28 05:01:05;;;;;;;8.75;4.72;;;;;;;7.47;49.24;102411.22;1684093;83;21060;-52
2022/02/28 05:03:32;;;;;;;8.33;4.47;;;;;;;7.46;49.27;102406.88;1691684;83;21567;-52
2022/02/28 05:06:00;;;;;;;9.33;4.97;;;;;;;7.43;49.37;102406.84;1691703;83;21156;-52
2022/02/28 05:08:27;;;;;;;9.08;4.58;;;;;;;7.43;49.55;102410.72;1683027;84;21016;-52
2022/02/28 05:10:55;;;;;;;9.38;5.20;;;;;;;7.43;49.66;102410.72;1688486;83;21008;-54
2022/02/28 05:13:22;;;;;;;12.07;5.20;;;;;;;7.45;49.67;102414.21;1692170;83;21755;-52
2022/02/28 05:15:49;;;;;;;7.83;4.28;;;;;;;7.45;49.85;102414.21;1711715;82;21095;-53
2022/02/28 05:18:16;;;;;;;8.58;4.90;;;;;;;7.47;49.67;102402.16;1737236;81;21514;-52
2022/02/28 05:20:44;;;;;;;10.72;4.87;;;;;;;7.49;49.43;102404.77;1764332;80;20991;-52
2022/02/28 05:23:13;;;;;;;8.25;4.75;;;;;;;7.46;49.47;102413.34;1778438;80;21066;-52
2022/02/28 05:25:41;;;;;;;6.80;4.30;;;;;;;7.48;49.73;102410.81;1759536;80;21038;-52
2022/02/28 05:28:08;;;;;;;16.75;5.35;;;;;;;7.49;49.88;102411.23;1744874;80;22409;-53
2022/02/28 05:30:35;;;;;;;7.62;4.42;;;;;;;7.49;49.47;102403.05;1759412;80;20978;-52
2022/02/28 05:33:01;;;;;;;7.83;4.95;;;;;;;7.47;49.16;102415.11;1775869;80;20983;-52
2022/02/28 05:35:32;;;;;;;11.12;5.15;;;;;;;7.44;49.38;102417.63;1767395;80;21530;-53
2022/02/28 05:38:12;;;;;;;11.90;5.00;;;;;;;7.43;49.16;102421.08;1689719;83;21024;-52
2022/02/28 05:40:42;;;;;;;9.30;4.67;;;;;;;7.41;49.20;102431.84;1677383;84;22167;-52
2022/02/28 05:43:11;;;;;;;11.93;5.28;;;;;;;7.39;49.09;102426.64;1683892;84;21105;-52
2022/02/28 05:45:38;;;;;;;8.43;4.67;;;;;;;7.39;49.11;102427.05;1682669;84;21117;-52
2022/02/28 05:48:09;;;;;;;6.47;4.00;;;;;;;7.37;48.96;102435.22;1600679;88;21072;-52
2022/02/28 05:50:36;;;;;;;9.50;5.47;;;;;;;7.36;48.88;102426.98;1608665;88;21091;-52
2022/02/28 05:53:03;;;;;;;9.98;4.60;;;;;;;7.37;48.64;102439.10;1604475;88;21057;-52
2022/02/28 05:55:29;;;;;;;7.50;4.83;;;;;;;7.36;49.06;102450.29;1599435;89;21148;-52
2022/02/28 05:57:56;;;;;;;7.83;4.45;;;;;;;7.37;48.77;102446.45;1592087;89;21517;-52
2022/02/28 06:00:22;;;;;;;11.15;4.90;;;;;;;7.38;48.96;102452.48;1593748;89;21167;-52
2022/02/28 06:02:51;;;;;;;10.35;5.03;;;;;;;7.38;49.03;102453.78;1593504;89;21152;-52
2022/02/28 06:05:18;;;;;;;7.53;5.10;;;;;;;7.38;48.91;102452.48;1594442;89;21053;-52
2022/02/28 06:07:46;;;;;;;6.58;4.80;;;;;;;7.40;49.09;102448.20;1608123;88;21111;-53
2022/02/28 06:10:13;;;;;;;10.50;5.60;;;;;;;7.42;49.25;102458.17;1612276;88;21058;-52
2022/02/28 06:12:39;;;;;;;8.60;4.55;;;;;;;7.43;49.34;102441.80;1615786;88;21640;-52
2022/02/28 06:15:09;;;;;;;7.47;5.20;;;;;;;7.44;49.43;102450.00;1614426;88;21567;-52
2022/02/28 06:17:36;;;;;;;7.85;4.20;;;;;;;7.43;49.07;102450.87;1597569;88;21052;-52
2022/02/28 06:20:06;;;;;;;8.35;5.03;;;;;;;7.43;48.94;102456.45;1616971;87;21080;-52
2022/02/28 06:22:33;;;;;;;8.65;5.33;;;;;;;7.40;48.93;102463.74;1598280;89;21543;-52
2022/02/28 06:25:00;;;;;;;7.15;4.97;;;;;;;7.40;49.25;102469.80;1597131;88;21575;-52
2022/02/28 06:27:27;;;;;;;10.10;5.42;;;;;;;7.40;48.88;102463.74;1600273;89;21626;-52
2022/02/28 06:29:54;;;;;;;7.85;4.87;;;;;;;7.37;48.56;102465.00;1598389;89;21143;-52
2022/02/28 06:32:20;;;;;;;10.23;5.15;;;;;;;7.35;48.84;102457.63;1615679;86;21034;-52
2022/02/28 06:34:47;;;;;;;9.23;5.58;;;;;;;7.32;48.61;102460.14;1646757;86;21062;-52
2022/02/28 06:37:13;;;;;;;10.68;5.37;;;;;;;7.30;48.84;102465.30;1649337;86;21101;-52
2022/02/28 06:39:40;;;;;;;11.08;5.50;;;;;;;7.32;48.85;102453.67;1651352;86;21082;-53
2022/02/28 06:42:09;;;;;;;7.28;4.78;;;;;;;7.31;49.00;102446.77;1647368;85;21108;-52
2022/02/28 06:44:36;;;;;;;7.40;5.22;;;;;;;7.30;48.78;102439.83;1693312;80;21015;-52
2022/02/28 06:47:04;;;;;;;8.65;4.78;;;;;;;7.31;49.13;102439.87;1750082;80;21065;-53
2022/02/28 06:49:31;;;;;;;9.30;4.95;;;;;;;7.32;49.04;102447.20;1751600;80;21042;-54
2022/02/28 06:51:57;;;;;;;6.87;4.55;;;;;;;7.28;48.91;102450.16;1762620;80;21463;-52
2022/02/28 06:54:23;;;;;;;8.73;4.97;;;;;;;7.28;48.69;102439.80;1765259;80;21003;-52
2022/02/28 06:56:50;;;;;;;6.62;4.25;;;;;;;7.28;48.38;102446.69;1761871;80;21553;-52
2022/02/28 06:59:17;;;;;;;9.23;4.65;;;;;;;7.27;48.63;102443.67;1757737;80;21074;-52
2022/02/28 07:01:43;;;;;;;14.70;4.80;;;;;;;7.28;48.91;102449.28;1752656;80;21017;-52
2022/02/28 07:04:28;;;;;;;6.55;4.70;;;;;;;7.30;48.87;102441.12;1762957;80;21061;-52
2022/02/28 07:06:55;;;;;;;8.75;4.50;;;;;;;7.29;48.29;102451.05;1764831;80;21078;-52
2022/02/28 07:09:24;;;;;;;11.35;5.47;;;;;;;7.28;48.42;102446.69;1760666;80;21034;-52
2022/02/28 07:11:50;;;;;;;7.15;5.20;;;;;;;7.28;48.28;102445.39;1751874;80;21066;-52
2022/02/28 07:14:17;;;;;;;7.97;4.30;;;;;;;7.29;48.32;102445.86;1748604;80;21470;-52
2022/02/28 07:16:45;;;;;;;6.33;4.58;;;;;;;7.28;48.02;102450.58;1726092;82;21565;-52
2022/02/28 07:19:11;;;;;;;6.83;4.37;;;;;;;7.28;47.96;102449.28;1769285;81;21022;-52
2022/02/28 07:21:38;;;;;;;7.30;4.78;;;;;;;7.28;48.21;102441.52;1758392;80;21043;-52
2022/02/28 07:24:04;;;;;;;9.18;4.47;;;;;;;7.28;48.00;102451.87;1748967;81;21033;-52
2022/02/28 07:26:34;;;;;;;10.78;3.83;;;;;;;7.28;48.03;102441.09;1752752;81;21101;-53
2022/02/28 07:29:00;;;;;;;8.33;4.60;;;;;;;7.29;48.33;102449.30;1753304;80;21090;-52
2022/02/28 07:31:27;;;;;;;8.35;5.85;;;;;;;7.31;48.11;102452.82;1754746;80;21007;-53
2022/02/28 07:33:53;;;;;;;9.05;4.22;;;;;;;7.33;47.92;102457.61;1746766;80;20994;-52
2022/02/28 07:36:19;;;;;;;8.55;4.72;;;;;;;7.32;47.80;102454.97;1753403;80;21033;-52
2022/02/28 07:38:46;;;;;;;8.20;4.20;;;;;;;7.34;48.07;102444.21;1750044;80;21060;-52
2022/02/28 07:41:13;;;;;;;5.78;4.30;;;;;;;7.35;47.99;102456.33;1747999;81;21074;-53
2022/02/28 07:43:39;;;;;;;9.08;4.10;;;;;;;7.37;48.01;102453.34;1751949;81;21027;-52
2022/02/28 07:46:05;;;;;;;6.58;4.47;;;;;;;7.38;48.11;102452.07;1746496;81;21058;-52
2022/02/28 07:48:32;;;;;;;7.22;4.53;;;;;;;7.39;47.43;102447.36;1759264;80;21600;-52
2022/02/28 07:50:59;;;;;;;7.22;4.12;;;;;;;7.38;47.42;102446.02;1758031;80;21444;-52
2022/02/28 07:53:25;;;;;;;5.42;4.15;;;;;;;7.39;47.78;102452.95;1754842;80;21538;-52
2022/02/28 07:55:52;;;;;;;10.38;4.55;;;;;;;7.39;47.61;102440.00;1757432;81;21009;-52
2022/02/28 07:58:19;;;;;;;6.90;4.70;;;;;;;7.40;47.65;102444.31;1753127;80;21087;-53
2022/02/28 08:00:45;;;;;;;5.05;4.05;;;;;;;7.40;47.60;102436.55;1751647;81;21104;-52
2022/02/28 08:03:11;;;;;;;9.35;4.40;;;;;;;7.40;47.32;102432.67;1756868;81;21024;-52
2022/02/28 08:05:38;;;;;;;8.88;3.98;;;;;;;7.39;47.14;102433.11;1758432;80;21038;-52
2022/02/28 08:08:05;;;;;;;7.92;4.47;;;;;;;7.43;47.16;102439.21;1751024;80;21010;-52
2022/02/28 08:10:32;;;;;;;9.75;4.50;;;;;;;7.46;46.97;102446.17;1760074;80;21549;-52
2022/02/28 08:12:59;;;;;;;9.98;4.00;;;;;;;7.46;46.67;102445.72;1765399;80;21545;-52
2022/02/28 08:15:25;;;;;;;10.32;4.97;;;;;;;7.46;46.74;102449.61;1758353;80;21513;-52
2022/02/28 08:17:52;;;;;;;6.17;3.72;;;;;;;7.49;46.72;102441.02;1747933;80;21088;-52
2022/02/28 08:20:19;;;;;;;6.90;3.98;;;;;;;7.50;46.86;102439.75;1768737;80;21033;-52
2022/02/28 08:22:45;;;;;;;7.53;4.78;;;;;;;7.54;46.68;102450.64;1761452;80;21039;-52
2022/02/28 08:25:12;;;;;;;8.40;4.90;;;;;;;7.55;46.71;102442.02;1753421;80;21057;-52
2022/02/28 08:27:40;;;;;;;7.62;4.62;;;;;;;7.56;46.64;102426.05;1754686;80;21042;-52
2022/02/28 08:30:08;;;;;;;7.92;4.17;;;;;;;7.54;46.22;102432.52;1761015;80;21026;-51
2022/02/28 08:32:34;;;;;;;9.93;5.25;;;;;;;7.56;46.57;102432.53;1755766;80;21014;-52
2022/02/28 08:35:01;;;;;;;9.85;4.60;;;;;;;7.59;46.71;102436.45;1749129;81;21558;-52
2022/02/28 08:37:27;;;;;;;7.47;4.50;;;;;;;7.61;46.81;102423.98;1751841;80;21490;-52
2022/02/28 08:39:54;;;;;;;7.92;4.17;;;;;;;7.63;46.63;102435.23;1760374;80;21462;-52
2022/02/28 08:42:21;;;;;;;7.75;4.83;;;;;;;7.63;46.99;102429.17;1761011;80;21504;-52
2022/02/28 08:44:47;;;;;;;6.53;4.50;;;;;;;7.65;46.60;102433.55;1746531;81;21481;-52
2022/02/28 08:47:14;;;;;;;8.53;5.05;;;;;;;7.67;46.55;102430.55;1753091;80;21510;-52
2022/02/28 08:49:41;;;;;;;10.10;5.00;;;;;;;7.67;46.43;102425.38;1754585;80;21529;-52
2022/02/28 08:52:07;;;;;;;8.65;5.15;;;;;;;7.70;46.42;102418.97;1762263;80;21030;-52
2022/02/28 08:54:35;;;;;;;8.38;4.83;;;;;;;7.70;46.22;102433.22;1779043;80;21042;-52
2022/02/28 08:57:03;;;;;;;6.90;4.50;;;;;;;7.74;46.36;102428.53;1748502;80;21031;-52
2022/02/28 08:59:31;;;;;;;10.72;4.85;;;;;;;7.75;45.91;102425.07;1759240;80;21031;-52
2022/02/28 09:01:57;;;;;;;6.95;4.80;;;;;;;7.78;45.95;102429.03;1756005;80;21538;-52
2022/02/28 09:04:24;;;;;;;12.20;6.22;;;;;;;7.80;45.62;102423.86;1751363;80;21487;-52
2022/02/28 09:06:53;;;;;;;15.45;5.95;;;;;;;7.81;45.82;102421.28;1765960;80;21065;-52
2022/02/28 09:09:20;;;;;;;11.08;6.33;;;;;;;7.81;45.45;102426.47;1765666;80;21077;-52
2022/02/28 09:11:46;;;;;;;11.57;6.15;;;;;;;7.82;45.38;102421.75;1753847;81;21074;-52
2022/02/28 09:14:13;;;;;;;11.38;5.97;;;;;;;7.82;45.49;102420.45;1751712;80;21543;-52
2022/02/28 09:16:39;;;;;;;9.58;4.72;;;;;;;7.86;45.65;102430.02;1758187;80;21124;-52
2022/02/28 09:19:06;;;;;;;8.18;5.20;;;;;;;7.89;45.68;102419.68;1765185;80;21042;-52
2022/02/28 09:21:32;;;;;;;9.65;6.10;;;;;;;7.94;45.61;102419.34;1755998;81;21514;-53
2022/02/28 09:23:58;;;;;;;9.68;4.80;;;;;;;8.00;45.49;102422.02;1753095;80;21494;-52
2022/02/28 09:26:25;;;;;;;10.50;4.78;;;;;;;8.07;45.57;102416.09;1759646;80;21475;-52
2022/02/28 09:28:51;;;;;;;7.50;4.30;;;;;;;8.14;45.47;102416.61;1752125;80;21003;-52
2022/02/28 09:31:18;;;;;;;6.92;4.45;;;;;;;8.18;45.35;102409.33;1753243;80;21015;-52
2022/02/28 09:33:44;;;;;;;13.95;4.87;;;;;;;8.22;45.02;102418.05;1761714;80;21090;-52
2022/02/28 09:36:13;;;;;;;8.48;5.25;;;;;;;8.24;45.00;102415.05;1763688;80;21038;-52
2022/02/28 09:38:40;;;;;;;6.42;4.85;;;;;;;8.25;44.90;102415.51;1754112;80;21488;-52
2022/02/28 09:41:07;;;;;;;5.78;4.20;;;;;;;8.24;44.90;102414.59;1757684;80;21037;-53
2022/02/28 09:43:53;;;;;;;8.08;4.87;;;;;;;8.27;45.19;102410.33;1760902;80;21073;-52
2022/02/28 09:46:20;;;;;;;8.15;5.45;;;;;;;8.26;44.84;102404.30;1761042;80;21045;-53
2022/02/28 09:49:04;;;;;;;10.60;5.55;;;;;;;8.26;44.59;102408.19;1762619;80;21030;-52
2022/02/28 09:51:33;;;;;;;11.40;5.70;;;;;;;8.23;44.78;102409.40;1704692;83;21583;-52
2022/02/28 09:54:20;;;;;;;13.30;5.83;;;;;;;8.21;44.75;102400.30;1707143;83;21047;-52
2022/02/28 09:57:08;;;;;;;7.20;4.97;;;;;;;8.20;45.15;102393.36;1707995;83;21058;-52
2022/02/28 09:59:45;;;;;;;11.63;5.53;;;;;;;8.21;45.23;102388.64;1616471;88;21100;-52
2022/02/28 10:02:13;;;;;;;10.70;5.80;;;;;;;8.21;45.22;102380.86;1619246;87;21105;-52
2022/02/28 10:04:40;;;;;;;14.70;6.08;;;;;;;8.21;45.11;102383.45;1607268;87;21060;-52
2022/02/28 10:07:20;;;;;;;10.08;5.45;;;;;;;8.23;45.23;102362.30;1591065;88;21055;-52
2022/02/28 10:09:49;;;;;;;9.53;5.63;;;;;;;8.24;44.30;102370.52;1630253;87;21127;-52
2022/02/28 10:12:16;;;;;;;14.23;6.60;;;;;;;8.24;44.60;102362.73;1593051;88;21609;-52
2022/02/28 10:14:45;;;;;;;6.72;5.17;;;;;;;8.21;44.79;102362.70;1629341;87;21030;-51
2022/02/28 10:17:13;;;;;;;11.68;6.50;;;;;;;8.15;44.49;102360.03;1550633;91;21585;-52
2022/02/28 10:19:42;;;;;;;12.30;5.85;;;;;;;8.12;44.79;102349.61;1546339;92;21255;-52
2022/02/28 10:22:09;;;;;;;12.13;6.03;;;;;;;8.11;45.13;102348.30;1531418;92;21117;-52
2022/02/28 10:24:39;;;;;;;7.92;5.20;;;;;;;8.10;45.31;102344.83;1523586;94;21060;-52
2022/02/28 10:27:23;;;;;;;11.18;5.50;;;;;;;8.12;44.63;102339.23;1574905;89;21597;-52
2022/02/28 10:30:04;;;;;;;10.82;6.30;;;;;;;8.06;44.16;102332.67;1516001;92;21121;-51
2022/02/28 10:32:49;;;;;;;11.40;5.80;;;;;;;8.01;44.28;102321.39;1523265;92;21699;-51
2022/02/28 10:36:01;;;;;;;10.88;5.78;;;;;;;7.98;44.20;102329.53;1513979;90;21117;-51
2022/02/28 10:38:32;;;;;;;9.78;5.75;;;;;;;7.95;44.19;102312.23;1586899;89;21049;-51
2022/02/28 10:41:01;;;;;;;9.65;5.95;;;;;;;7.90;43.63;102295.73;1589436;89;21155;-50
2022/02/28 10:43:30;;;;;;;9.18;5.60;;;;;;;7.88;43.87;102294.84;1513943;93;21077;-51
2022/02/28 10:45:58;;;;;;;7.03;5.40;;;;;;;7.89;44.29;102291.39;1502712;92;21210;-51
2022/02/28 10:48:25;;;;;;;6.97;5.30;;;;;;;7.91;43.87;102300.05;1505330;92;21076;-51
2022/02/28 10:50:53;;;;;;;9.85;5.62;;;;;;;7.92;43.60;102306.12;1508546;93;21588;-51
2022/02/28 10:53:22;;;;;;;8.80;5.50;;;;;;;7.93;43.94;102306.58;1504375;93;21109;-51
2022/02/28 10:55:50;;;;;;;10.38;5.83;;;;;;;7.92;43.67;102308.30;1501800;93;21093;-51
2022/02/28 10:58:24;;;;;;;8.33;5.00;;;;;;;7.91;43.56;102307.83;1510567;93;21133;-51
2022/02/28 11:01:03;;;;;;;10.15;5.30;;;;;;;7.92;43.81;102308.30;1497317;93;21146;-51
2022/02/28 11:03:49;;;;;;;13.65;5.95;;;;;;;7.95;43.98;102321.31;1509136;93;21682;-51
2022/02/28 11:06:20;;;;;;;9.48;5.60;;;;;;;7.98;43.92;102320.04;1512461;93;21120;-51
2022/02/28 11:08:47;;;;;;;8.65;5.22;;;;;;;8.00;43.93;102320.93;1511275;92;21130;-53
2022/02/28 11:11:14;;;;;;;10.50;5.80;;;;;;;8.05;43.81;102312.80;1504736;93;21070;-54
2022/02/28 11:13:44;;;;;;;10.53;5.35;;;;;;;8.08;43.41;102328.80;1516466;93;21125;-53
2022/02/28 11:16:13;;;;;;;11.83;5.15;;;;;;;8.10;43.38;102317.61;1501834;93;21671;-53
2022/02/28 11:18:39;;;;;;;7.30;5.15;;;;;;;8.13;43.80;102322.84;1504600;93;21110;-52
2022/02/28 11:21:07;;;;;;;7.50;4.83;;;;;;;8.16;43.70;102320.27;1553659;91;21090;-52
2022/02/28 11:23:39;;;;;;;6.95;4.87;;;;;;;8.21;43.83;102323.81;1557040;91;21092;-52
2022/02/28 11:26:05;;;;;;;8.05;5.42;;;;;;;8.23;43.42;102328.59;1542848;90;21076;-53
2022/02/28 11:28:32;;;;;;;5.67;4.55;;;;;;;8.26;43.65;102329.52;1542178;90;21067;-52
2022/02/28 11:31:06;;;;;;;9.95;5.53;;;;;;;8.28;43.16;102331.70;1561476;90;21115;-52
2022/02/28 11:33:33;;;;;;;8.25;5.53;;;;;;;8.30;43.17;102329.58;1512307;93;21101;-52
2022/02/28 11:35:59;;;;;;;7.00;4.95;;;;;;;8.33;43.02;102341.27;1512745;93;21081;-52